»·PEaware :: SWA115 KVCV-KPHX

SWA115 :: KVCV-KPHX

FLIGHT INFORMATION

Flight Status: Arrived
Operator:
Southwest Airlines
More flights by this operator :: More flights under this callsign
Pilot: Anonymous 30051 (30051)
Aircraft: BOEING 737-200
(B732)
More flights by this aircraft type
Origin: KVCV Socal Logistics
United States
Destination: KPHX Phoenix Sky Harbor Intl
United States
More flights between these airports :: More routes between these airports
Route: +HEC J6 DRK COYOT5
File this flight plan on PilotEdge
Remarks:
Altitude:
(Current/Filed)
33,000ft
Speed:
(Current/Filed)
433kts
Departed: 05-Sep-20 10:49 AM
Arrived: 05-Sep-20 11:59 AM
Distance/Time
Traveled:
276nm/1:10
Distance/Time
To Go:
Arrived

Flight Plot

Page will automatically refresh every two minutes.

Flight plan parsing failed; only flown route is shown


Map Options




Map Legend


Flown Route
Filed Route
Departure Airport
Arrival Airport
Navaid (VOR, NDB)
Fix

Horizontal Profiles

Position Reports

Time Latitude Longitude Heading Altitude Ground
Speed
05-Sep-20 10:29 34.584420 -117.381284 315 2881ft 0kts
05-Sep-20 10:31 34.584420 -117.381284 315 2881ft 0kts
05-Sep-20 10:31 34.584420 -117.381284 315 2881ft 0kts
05-Sep-20 10:32 34.584420 -117.381284 315 2881ft 0kts
05-Sep-20 10:34 34.584420 -117.381284 315 2881ft 0kts
05-Sep-20 10:34 34.584420 -117.381284 315 2881ft 0kts
05-Sep-20 10:35 34.584420 -117.381284 315 2881ft 0kts
05-Sep-20 10:36 34.584420 -117.381284 315 2881ft 0kts
05-Sep-20 10:37 34.584420 -117.381285 315 2881ft 0kts
05-Sep-20 10:38 34.584420 -117.381285 315 2881ft 0kts
05-Sep-20 10:39 34.584420 -117.381285 315 2881ft 0kts
05-Sep-20 10:40 34.584424 -117.381289 315 2881ft 0kts
05-Sep-20 10:41 34.586368 -117.380537 44 2879ft 18kts
05-Sep-20 10:42 34.590152 -117.376049 43 2872ft 23kts
05-Sep-20 10:43 34.593304 -117.368796 90 2863ft 21kts
05-Sep-20 10:44 34.598491 -117.366764 11 2850ft 15kts
05-Sep-20 10:45 34.599032 -117.366639 10 2848ft 0kts
05-Sep-20 10:46 34.599032 -117.366639 10 2848ft 0kts
05-Sep-20 10:47 34.600238 -117.366828 242 2846ft 5kts
05-Sep-20 10:48 34.583496 -117.386818 226 2937ft 172kts
05-Sep-20 10:49 34.568637 -117.457890 262 4265ft 262kts
05-Sep-20 10:50 34.556680 -117.551212 261 6733ft 306kts
05-Sep-20 10:51 34.558803 -117.656356 303 9527ft 332kts
05-Sep-20 10:52 34.607801 -117.748991 301 11907ft 348kts
05-Sep-20 10:53 34.698917 -117.777016 11 14057ft 366kts
05-Sep-20 10:54 34.780940 -117.711178 50 16195ft 364kts
05-Sep-20 10:55 34.850736 -117.624642 70 18109ft 364kts
05-Sep-20 10:56 34.883643 -117.507220 79 19866ft 369kts
05-Sep-20 10:57 34.894056 -117.382621 92 21398ft 373kts
05-Sep-20 10:58 34.885044 -117.255708 101 22649ft 382kts
05-Sep-20 10:59 34.863100 -117.128063 104 22953ft 388kts
05-Sep-20 11:00 34.843568 -116.999719 99 22941ft 384kts
05-Sep-20 11:01 34.833583 -116.870539 94 22927ft 383kts
05-Sep-20 11:02 34.824686 -116.738504 96 23715ft 395kts
05-Sep-20 11:03 34.811097 -116.605539 97 24904ft 400kts
05-Sep-20 11:04 34.797328 -116.470021 97 25937ft 406kts
05-Sep-20 11:05 34.798761 -116.331733 86 26878ft 412kts
05-Sep-20 11:06 34.807386 -116.191660 87 27730ft 417kts
05-Sep-20 11:07 34.810452 -116.050127 91 28504ft 421kts
05-Sep-20 11:08 34.805389 -115.907380 94 29244ft 425kts
05-Sep-20 11:09 34.795100 -115.763805 95 30017ft 429kts
05-Sep-20 11:10 34.786252 -115.618420 93 30620ft 433kts
05-Sep-20 11:11 34.783776 -115.470573 90 30930ft 443kts
05-Sep-20 11:12 34.785960 -115.317705 89 30911ft 458kts
05-Sep-20 11:13 34.786098 -115.160952 91 30953ft 468kts
05-Sep-20 11:14 34.780641 -115.003892 93 31059ft 466kts
05-Sep-20 11:15 34.774921 -114.846712 91 31054ft 464kts
05-Sep-20 11:16 34.771568 -114.690163 91 31054ft 461kts
05-Sep-20 11:17 34.767533 -114.541264 91 30075ft 426kts
05-Sep-20 11:18 34.751772 -114.405450 124 29032ft 390kts
05-Sep-20 11:19 34.671649 -114.314474 138 29043ft 398kts
05-Sep-20 11:20 34.594474 -114.219313 109 29033ft 399kts
05-Sep-20 11:21 34.599363 -114.085881 81 29040ft 407kts
05-Sep-20 11:22 34.617777 -113.947105 80 29053ft 424kts
05-Sep-20 11:23 34.636955 -113.803523 80 29128ft 437kts
05-Sep-20 11:24 34.656398 -113.658802 80 29210ft 427kts
05-Sep-20 11:25 34.675138 -113.520048 80 28007ft 413kts
05-Sep-20 11:26 34.693361 -113.385252 80 26893ft 379kts
05-Sep-20 11:27 34.709788 -113.264054 80 25563ft 386kts
05-Sep-20 11:28 34.727726 -113.131882 80 23896ft 396kts
05-Sep-20 11:29 34.769186 -113.011715 65 21932ft 382kts
05-Sep-20 11:30 34.778779 -112.886217 97 19913ft 374kts
05-Sep-20 11:31 34.756773 -112.763917 102 17948ft 367kts
05-Sep-20 11:32 34.733304 -112.645278 101 16072ft 358kts
05-Sep-20 11:33 34.711520 -112.528578 101 14234ft 350kts
05-Sep-20 11:34 34.660442 -112.435878 136 13334ft 318kts
05-Sep-20 11:35 34.599087 -112.370641 136 13354ft 298kts
05-Sep-20 11:36 34.527896 -112.291201 129 13354ft 371kts
05-Sep-20 11:37 34.489692 -112.187350 116 13341ft 323kts
05-Sep-20 11:38 34.439704 -112.095450 123 13350ft 333kts
05-Sep-20 11:39 34.359187 -112.053018 187 13352ft 352kts
05-Sep-20 11:40 34.266560 -112.073482 190 12879ft 320kts
05-Sep-20 11:41 34.180347 -112.093331 190 11428ft 315kts
05-Sep-20 11:42 34.096525 -112.112806 190 10546ft 289kts
05-Sep-20 11:43 34.021043 -112.131053 190 10061ft 272kts
05-Sep-20 11:44 33.947728 -112.149020 190 10073ft 265kts
05-Sep-20 11:45 33.878141 -112.166240 190 10029ft 242kts
05-Sep-20 11:46 33.817005 -112.181605 190 8953ft 207kts
05-Sep-20 11:47 33.760405 -112.196481 190 6785ft 211kts
05-Sep-20 11:48 33.704284 -112.211857 190 4886ft 203kts
05-Sep-20 11:49 33.655212 -112.225982 190 4012ft 167kts
05-Sep-20 11:50 33.608239 -112.217871 159 4051ft 174kts
05-Sep-20 11:51 33.570011 -112.204796 159 4024ft 141kts
05-Sep-20 11:52 33.530538 -112.191339 158 4004ft 149kts
05-Sep-20 11:53 33.491989 -112.173340 150 3719ft 145kts
05-Sep-20 11:54 33.457026 -112.149470 134 3024ft 139kts
05-Sep-20 11:55 33.441722 -112.108951 90 2452ft 146kts
05-Sep-20 11:56 33.441121 -112.061978 92 1664ft 138kts
05-Sep-20 11:57 33.440868 -112.016988 90 1124ft 117kts
05-Sep-20 11:58 33.440395 -112.001226 136 1132ft 0kts
05-Sep-20 11:59 33.440244 -112.001096 151 1132ft 7kts
05-Sep-20 12:00 33.437749 -112.003777 178 1131ft 17kts

Navigation Log

Ident Type
Flight plan parsing failed, navigation log unavailable